sensor_id;sensor_type;location;lat;lon;timestamp;P1;durP1;ratioP1;P2;durP2;ratioP2
16967;SDS011;8600;54.338;10.128;2022-08-19T00:00:49;37.95;;;21.90;;
16967;SDS011;8600;54.338;10.128;2022-08-19T00:03:16;36.65;;;20.83;;
16967;SDS011;8600;54.338;10.128;2022-08-19T00:05:45;40.63;;;21.15;;
16967;SDS011;8600;54.338;10.128;2022-08-19T00:08:12;41.42;;;21.38;;
16967;SDS011;8600;54.338;10.128;2022-08-19T00:10:38;39.10;;;20.70;;
16967;SDS011;8600;54.338;10.128;2022-08-19T00:13:05;42.88;;;21.27;;
16967;SDS011;8600;54.338;10.128;2022-08-19T00:15:33;38.30;;;20.30;;
16967;SDS011;8600;54.338;10.128;2022-08-19T00:17:59;34.10;;;20.25;;
16967;SDS011;8600;54.338;10.128;2022-08-19T00:20:26;38.65;;;21.00;;
16967;SDS011;8600;54.338;10.128;2022-08-19T00:22:55;40.75;;;20.45;;
16967;SDS011;8600;54.338;10.128;2022-08-19T00:25:22;39.10;;;20.80;;
16967;SDS011;8600;54.338;10.128;2022-08-19T00:27:49;37.95;;;19.85;;
16967;SDS011;8600;54.338;10.128;2022-08-19T00:30:16;38.10;;;20.88;;
16967;SDS011;8600;54.338;10.128;2022-08-19T00:32:44;40.03;;;21.08;;
16967;SDS011;8600;54.338;10.128;2022-08-19T00:35:10;38.88;;;20.80;;
16967;SDS011;8600;54.338;10.128;2022-08-19T00:37:38;42.10;;;20.58;;
16967;SDS011;8600;54.338;10.128;2022-08-19T00:40:10;39.33;;;21.13;;
16967;SDS011;8600;54.338;10.128;2022-08-19T00:42:38;39.90;;;21.17;;
16967;SDS011;8600;54.338;10.128;2022-08-19T00:45:08;35.78;;;20.63;;
16967;SDS011;8600;54.338;10.128;2022-08-19T00:47:37;41.20;;;21.08;;
16967;SDS011;8600;54.338;10.128;2022-08-19T00:50:05;38.70;;;20.85;;
16967;SDS011;8600;54.338;10.128;2022-08-19T00:52:41;41.92;;;21.88;;
16967;SDS011;8600;54.338;10.128;2022-08-19T00:55:16;39.45;;;21.20;;
16967;SDS011;8600;54.338;10.128;2022-08-19T00:57:56;45.70;;;21.65;;
16967;SDS011;8600;54.338;10.128;2022-08-19T01:00:34;43.58;;;21.35;;
16967;SDS011;8600;54.338;10.128;2022-08-19T01:03:02;45.13;;;22.30;;
16967;SDS011;8600;54.338;10.128;2022-08-19T01:05:29;40.80;;;21.75;;
16967;SDS011;8600;54.338;10.128;2022-08-19T01:07:57;46.92;;;22.10;;
16967;SDS011;8600;54.338;10.128;2022-08-19T01:10:29;50.88;;;22.67;;
16967;SDS011;8600;54.338;10.128;2022-08-19T01:12:58;45.10;;;23.58;;
16967;SDS011;8600;54.338;10.128;2022-08-19T01:15:29;45.38;;;23.67;;
16967;SDS011;8600;54.338;10.128;2022-08-19T01:17:58;53.40;;;24.45;;
16967;SDS011;8600;54.338;10.128;2022-08-19T01:20:27;51.55;;;24.65;;
16967;SDS011;8600;54.338;10.128;2022-08-19T01:22:57;52.58;;;24.15;;
16967;SDS011;8600;54.338;10.128;2022-08-19T01:25:26;52.28;;;24.55;;
16967;SDS011;8600;54.338;10.128;2022-08-19T01:27:55;51.95;;;25.13;;
16967;SDS011;8600;54.338;10.128;2022-08-19T01:30:24;55.85;;;25.10;;
16967;SDS011;8600;54.338;10.128;2022-08-19T01:32:54;54.00;;;23.77;;
16967;SDS011;8600;54.338;10.128;2022-08-19T01:35:22;51.15;;;25.17;;
16967;SDS011;8600;54.338;10.128;2022-08-19T01:37:51;55.40;;;25.45;;
16967;SDS011;8600;54.338;10.128;2022-08-19T01:40:23;50.45;;;25.25;;
16967;SDS011;8600;54.338;10.128;2022-08-19T01:42:52;54.63;;;25.27;;
16967;SDS011;8600;54.338;10.128;2022-08-19T01:45:20;55.47;;;25.15;;
16967;SDS011;8600;54.338;10.128;2022-08-19T01:47:49;52.35;;;25.45;;
16967;SDS011;8600;54.338;10.128;2022-08-19T01:50:16;56.25;;;25.50;;
16967;SDS011;8600;54.338;10.128;2022-08-19T01:52:44;53.15;;;25.50;;
16967;SDS011;8600;54.338;10.128;2022-08-19T01:55:17;59.60;;;27.27;;
16967;SDS011;8600;54.338;10.128;2022-08-19T01:57:48;60.33;;;25.40;;
16967;SDS011;8600;54.338;10.128;2022-08-19T02:00:19;59.25;;;25.90;;
16967;SDS011;8600;54.338;10.128;2022-08-19T02:02:49;57.13;;;26.38;;
16967;SDS011;8600;54.338;10.128;2022-08-19T02:05:17;60.95;;;26.27;;
16967;SDS011;8600;54.338;10.128;2022-08-19T02:07:46;57.15;;;26.40;;
16967;SDS011;8600;54.338;10.128;2022-08-19T02:10:14;59.92;;;26.20;;
16967;SDS011;8600;54.338;10.128;2022-08-19T02:12:45;56.63;;;26.42;;
16967;SDS011;8600;54.338;10.128;2022-08-19T02:15:14;60.42;;;26.70;;
16967;SDS011;8600;54.338;10.128;2022-08-19T02:17:41;66.70;;;27.85;;
16967;SDS011;8600;54.338;10.128;2022-08-19T02:20:09;62.92;;;27.38;;
16967;SDS011;8600;54.338;10.128;2022-08-19T02:22:38;63.60;;;27.30;;
16967;SDS011;8600;54.338;10.128;2022-08-19T02:25:06;61.78;;;26.50;;
16967;SDS011;8600;54.338;10.128;2022-08-19T02:27:34;65.15;;;28.65;;
16967;SDS011;8600;54.338;10.128;2022-08-19T02:30:03;58.17;;;27.02;;
16967;SDS011;8600;54.338;10.128;2022-08-19T02:32:31;63.35;;;27.52;;
16967;SDS011;8600;54.338;10.128;2022-08-19T02:34:58;59.75;;;27.20;;
16967;SDS011;8600;54.338;10.128;2022-08-19T02:37:25;60.25;;;28.20;;
16967;SDS011;8600;54.338;10.128;2022-08-19T02:42:37;61.10;;;27.13;;
16967;SDS011;8600;54.338;10.128;2022-08-19T02:45:06;57.00;;;26.83;;
16967;SDS011;8600;54.338;10.128;2022-08-19T02:47:34;57.92;;;26.58;;
16967;SDS011;8600;54.338;10.128;2022-08-19T02:50:01;70.57;;;28.02;;
16967;SDS011;8600;54.338;10.128;2022-08-19T02:52:29;55.45;;;27.52;;
16967;SDS011;8600;54.338;10.128;2022-08-19T02:54:57;52.47;;;26.52;;
16967;SDS011;8600;54.338;10.128;2022-08-19T02:57:25;57.70;;;27.40;;
16967;SDS011;8600;54.338;10.128;2022-08-19T02:59:52;59.10;;;27.65;;
16967;SDS011;8600;54.338;10.128;2022-08-19T03:02:21;54.63;;;27.63;;
16967;SDS011;8600;54.338;10.128;2022-08-19T03:04:48;66.50;;;26.88;;
16967;SDS011;8600;54.338;10.128;2022-08-19T03:07:15;71.97;;;27.60;;
16967;SDS011;8600;54.338;10.128;2022-08-19T03:09:43;63.25;;;28.10;;
16967;SDS011;8600;54.338;10.128;2022-08-19T03:12:10;68.18;;;28.35;;
16967;SDS011;8600;54.338;10.128;2022-08-19T03:14:37;66.55;;;27.63;;
16967;SDS011;8600;54.338;10.128;2022-08-19T03:17:04;73.88;;;29.05;;
16967;SDS011;8600;54.338;10.128;2022-08-19T03:19:34;64.05;;;28.67;;
16967;SDS011;8600;54.338;10.128;2022-08-19T03:22:01;61.55;;;27.05;;
16967;SDS011;8600;54.338;10.128;2022-08-19T03:24:29;59.30;;;27.60;;
16967;SDS011;8600;54.338;10.128;2022-08-19T03:26:57;56.88;;;28.33;;
16967;SDS011;8600;54.338;10.128;2022-08-19T03:29:24;59.60;;;27.17;;
16967;SDS011;8600;54.338;10.128;2022-08-19T03:31:52;56.90;;;26.90;;
16967;SDS011;8600;54.338;10.128;2022-08-19T03:34:21;63.92;;;27.20;;
16967;SDS011;8600;54.338;10.128;2022-08-19T03:36:53;63.63;;;27.58;;
16967;SDS011;8600;54.338;10.128;2022-08-19T03:39:20;54.42;;;26.38;;
16967;SDS011;8600;54.338;10.128;2022-08-19T03:41:48;63.05;;;27.25;;
16967;SDS011;8600;54.338;10.128;2022-08-19T03:44:16;59.80;;;27.52;;
16967;SDS011;8600;54.338;10.128;2022-08-19T03:46:46;61.25;;;26.50;;
16967;SDS011;8600;54.338;10.128;2022-08-19T03:49:14;61.85;;;26.17;;
16967;SDS011;8600;54.338;10.128;2022-08-19T03:51:42;59.25;;;26.50;;
16967;SDS011;8600;54.338;10.128;2022-08-19T03:54:11;62.17;;;26.50;;
16967;SDS011;8600;54.338;10.128;2022-08-19T03:56:39;56.28;;;26.55;;
16967;SDS011;8600;54.338;10.128;2022-08-19T03:59:10;62.55;;;26.90;;
16967;SDS011;8600;54.338;10.128;2022-08-19T04:01:39;58.03;;;26.08;;
16967;SDS011;8600;54.338;10.128;2022-08-19T04:04:06;56.53;;;25.15;;
16967;SDS011;8600;54.338;10.128;2022-08-19T04:06:35;63.90;;;26.02;;
16967;SDS011;8600;54.338;10.128;2022-08-19T04:09:04;52.78;;;24.80;;
16967;SDS011;8600;54.338;10.128;2022-08-19T04:11:37;52.28;;;25.42;;
16967;SDS011;8600;54.338;10.128;2022-08-19T04:14:05;61.60;;;26.52;;
16967;SDS011;8600;54.338;10.128;2022-08-19T04:16:32;60.03;;;25.67;;
16967;SDS011;8600;54.338;10.128;2022-08-19T04:19:00;52.10;;;24.00;;
16967;SDS011;8600;54.338;10.128;2022-08-19T04:21:28;57.58;;;25.50;;
16967;SDS011;8600;54.338;10.128;2022-08-19T04:23:56;55.08;;;24.48;;
16967;SDS011;8600;54.338;10.128;2022-08-19T04:26:24;61.28;;;24.63;;
16967;SDS011;8600;54.338;10.128;2022-08-19T04:28:54;51.67;;;23.60;;
16967;SDS011;8600;54.338;10.128;2022-08-19T04:31:22;60.78;;;24.60;;
16967;SDS011;8600;54.338;10.128;2022-08-19T04:33:51;51.10;;;24.27;;
16967;SDS011;8600;54.338;10.128;2022-08-19T04:36:19;54.53;;;24.52;;
16967;SDS011;8600;54.338;10.128;2022-08-19T04:38:48;55.97;;;25.48;;
16967;SDS011;8600;54.338;10.128;2022-08-19T04:41:16;55.83;;;24.58;;
16967;SDS011;8600;54.338;10.128;2022-08-19T04:44:01;68.00;;;25.27;;
16967;SDS011;8600;54.338;10.128;2022-08-19T04:46:29;53.95;;;25.08;;
16967;SDS011;8600;54.338;10.128;2022-08-19T04:48:57;49.97;;;23.33;;
16967;SDS011;8600;54.338;10.128;2022-08-19T04:51:24;61.47;;;24.42;;
16967;SDS011;8600;54.338;10.128;2022-08-19T04:53:51;57.78;;;25.60;;
16967;SDS011;8600;54.338;10.128;2022-08-19T04:56:19;56.75;;;23.60;;
16967;SDS011;8600;54.338;10.128;2022-08-19T04:58:47;51.15;;;23.92;;
16967;SDS011;8600;54.338;10.128;2022-08-19T05:01:18;64.45;;;25.45;;
16967;SDS011;8600;54.338;10.128;2022-08-19T05:03:47;53.47;;;23.73;;
16967;SDS011;8600;54.338;10.128;2022-08-19T05:06:15;69.30;;;24.77;;
16967;SDS011;8600;54.338;10.128;2022-08-19T05:08:44;68.57;;;25.60;;
16967;SDS011;8600;54.338;10.128;2022-08-19T05:11:13;62.13;;;24.95;;
16967;SDS011;8600;54.338;10.128;2022-08-19T05:13:42;64.85;;;24.60;;
16967;SDS011;8600;54.338;10.128;2022-08-19T05:16:10;72.25;;;25.38;;
16967;SDS011;8600;54.338;10.128;2022-08-19T05:18:39;64.38;;;24.73;;
16967;SDS011;8600;54.338;10.128;2022-08-19T05:21:24;66.43;;;26.00;;
16967;SDS011;8600;54.338;10.128;2022-08-19T05:24:11;55.15;;;24.52;;
16967;SDS011;8600;54.338;10.128;2022-08-19T05:26:39;69.10;;;25.08;;
16967;SDS011;8600;54.338;10.128;2022-08-19T05:29:11;62.92;;;25.20;;
16967;SDS011;8600;54.338;10.128;2022-08-19T05:31:39;65.32;;;24.92;;
16967;SDS011;8600;54.338;10.128;2022-08-19T05:34:08;74.82;;;25.27;;
16967;SDS011;8600;54.338;10.128;2022-08-19T05:36:36;69.20;;;25.63;;
16967;SDS011;8600;54.338;10.128;2022-08-19T05:39:05;60.70;;;24.80;;
16967;SDS011;8600;54.338;10.128;2022-08-19T05:41:34;64.85;;;24.23;;
16967;SDS011;8600;54.338;10.128;2022-08-19T05:44:02;63.30;;;24.90;;
16967;SDS011;8600;54.338;10.128;2022-08-19T05:46:31;62.85;;;24.38;;
16967;SDS011;8600;54.338;10.128;2022-08-19T05:48:59;61.53;;;24.38;;
16967;SDS011;8600;54.338;10.128;2022-08-19T05:51:27;61.10;;;23.95;;
16967;SDS011;8600;54.338;10.128;2022-08-19T05:53:54;57.67;;;25.33;;
16967;SDS011;8600;54.338;10.128;2022-08-19T05:56:21;61.72;;;23.88;;
16967;SDS011;8600;54.338;10.128;2022-08-19T05:58:48;68.75;;;24.65;;
16967;SDS011;8600;54.338;10.128;2022-08-19T06:01:16;53.47;;;23.90;;
16967;SDS011;8600;54.338;10.128;2022-08-19T06:03:44;53.30;;;22.95;;
16967;SDS011;8600;54.338;10.128;2022-08-19T06:06:13;64.13;;;25.92;;
16967;SDS011;8600;54.338;10.128;2022-08-19T06:08:42;65.45;;;24.25;;
16967;SDS011;8600;54.338;10.128;2022-08-19T06:11:14;66.28;;;25.10;;
16967;SDS011;8600;54.338;10.128;2022-08-19T06:13:42;54.15;;;23.10;;
16967;SDS011;8600;54.338;10.128;2022-08-19T06:16:10;53.53;;;22.48;;
16967;SDS011;8600;54.338;10.128;2022-08-19T06:18:37;56.28;;;23.85;;
16967;SDS011;8600;54.338;10.128;2022-08-19T06:21:04;60.67;;;23.38;;
16967;SDS011;8600;54.338;10.128;2022-08-19T06:23:31;60.28;;;23.35;;
16967;SDS011;8600;54.338;10.128;2022-08-19T06:25:59;54.55;;;23.50;;
16967;SDS011;8600;54.338;10.128;2022-08-19T06:28:26;60.50;;;25.67;;
16967;SDS011;8600;54.338;10.128;2022-08-19T06:30:53;56.58;;;24.42;;
16967;SDS011;8600;54.338;10.128;2022-08-19T06:33:20;54.60;;;24.52;;
16967;SDS011;8600;54.338;10.128;2022-08-19T06:35:47;50.25;;;24.00;;
16967;SDS011;8600;54.338;10.128;2022-08-19T06:38:14;55.30;;;24.83;;
16967;SDS011;8600;54.338;10.128;2022-08-19T06:40:41;53.63;;;24.10;;
16967;SDS011;8600;54.338;10.128;2022-08-19T06:43:09;49.13;;;25.58;;
16967;SDS011;8600;54.338;10.128;2022-08-19T06:45:36;48.97;;;24.42;;
16967;SDS011;8600;54.338;10.128;2022-08-19T06:48:04;50.35;;;24.92;;
16967;SDS011;8600;54.338;10.128;2022-08-19T06:50:32;55.50;;;26.02;;
16967;SDS011;8600;54.338;10.128;2022-08-19T06:52:59;51.90;;;25.83;;
16967;SDS011;8600;54.338;10.128;2022-08-19T06:55:25;49.63;;;25.38;;
16967;SDS011;8600;54.338;10.128;2022-08-19T06:57:55;51.92;;;25.60;;
16967;SDS011;8600;54.338;10.128;2022-08-19T07:00:23;51.00;;;26.17;;
16967;SDS011;8600;54.338;10.128;2022-08-19T07:02:50;52.00;;;25.45;;
16967;SDS011;8600;54.338;10.128;2022-08-19T07:05:18;51.13;;;28.08;;
16967;SDS011;8600;54.338;10.128;2022-08-19T07:07:45;55.53;;;26.70;;
16967;SDS011;8600;54.338;10.128;2022-08-19T07:10:12;52.08;;;26.05;;
16967;SDS011;8600;54.338;10.128;2022-08-19T07:12:39;46.58;;;25.27;;
16967;SDS011;8600;54.338;10.128;2022-08-19T07:15:06;44.88;;;25.80;;
16967;SDS011;8600;54.338;10.128;2022-08-19T07:17:37;45.60;;;24.70;;
16967;SDS011;8600;54.338;10.128;2022-08-19T07:20:05;45.40;;;24.92;;
16967;SDS011;8600;54.338;10.128;2022-08-19T07:22:33;43.60;;;24.58;;
16967;SDS011;8600;54.338;10.128;2022-08-19T07:25:00;44.47;;;24.83;;
16967;SDS011;8600;54.338;10.128;2022-08-19T07:27:28;39.35;;;23.63;;
16967;SDS011;8600;54.338;10.128;2022-08-19T07:29:55;42.03;;;24.08;;
16967;SDS011;8600;54.338;10.128;2022-08-19T07:32:22;42.03;;;23.83;;
16967;SDS011;8600;54.338;10.128;2022-08-19T07:34:52;43.90;;;25.70;;
16967;SDS011;8600;54.338;10.128;2022-08-19T07:37:20;41.17;;;24.73;;
16967;SDS011;8600;54.338;10.128;2022-08-19T07:39:47;48.90;;;26.60;;
16967;SDS011;8600;54.338;10.128;2022-08-19T07:42:14;52.45;;;26.98;;
16967;SDS011;8600;54.338;10.128;2022-08-19T07:44:43;50.20;;;26.33;;
16967;SDS011;8600;54.338;10.128;2022-08-19T07:47:10;52.15;;;26.98;;
16967;SDS011;8600;54.338;10.128;2022-08-19T07:49:37;55.03;;;27.02;;
16967;SDS011;8600;54.338;10.128;2022-08-19T07:52:08;52.72;;;27.08;;
16967;SDS011;8600;54.338;10.128;2022-08-19T07:54:36;55.47;;;28.08;;
16967;SDS011;8600;54.338;10.128;2022-08-19T07:57:04;50.90;;;26.83;;
16967;SDS011;8600;54.338;10.128;2022-08-19T07:59:32;51.83;;;27.67;;
16967;SDS011;8600;54.338;10.128;2022-08-19T08:02:00;59.65;;;29.48;;
16967;SDS011;8600;54.338;10.128;2022-08-19T08:04:27;54.35;;;29.05;;
16967;SDS011;8600;54.338;10.128;2022-08-19T08:07:25;57.47;;;28.15;;
16967;SDS011;8600;54.338;10.128;2022-08-19T08:10:10;47.72;;;27.60;;
16967;SDS011;8600;54.338;10.128;2022-08-19T08:12:38;51.53;;;27.77;;
16967;SDS011;8600;54.338;10.128;2022-08-19T08:15:07;54.28;;;28.30;;
16967;SDS011;8600;54.338;10.128;2022-08-19T08:17:36;45.80;;;27.35;;
16967;SDS011;8600;54.338;10.128;2022-08-19T08:20:04;48.30;;;27.60;;
16967;SDS011;8600;54.338;10.128;2022-08-19T08:22:34;49.72;;;28.35;;
16967;SDS011;8600;54.338;10.128;2022-08-19T08:25:19;44.20;;;26.10;;
16967;SDS011;8600;54.338;10.128;2022-08-19T08:27:48;46.33;;;27.63;;
16967;SDS011;8600;54.338;10.128;2022-08-19T08:30:16;42.22;;;26.67;;
16967;SDS011;8600;54.338;10.128;2022-08-19T08:32:44;42.38;;;26.27;;
16967;SDS011;8600;54.338;10.128;2022-08-19T08:35:13;47.20;;;26.30;;
16967;SDS011;8600;54.338;10.128;2022-08-19T08:37:43;43.60;;;27.15;;
16967;SDS011;8600;54.338;10.128;2022-08-19T08:40:14;48.80;;;28.85;;
16967;SDS011;8600;54.338;10.128;2022-08-19T08:42:46;51.10;;;28.35;;
16967;SDS011;8600;54.338;10.128;2022-08-19T08:45:18;44.60;;;27.48;;
16967;SDS011;8600;54.338;10.128;2022-08-19T08:47:47;43.13;;;26.85;;
16967;SDS011;8600;54.338;10.128;2022-08-19T08:50:18;44.72;;;27.50;;
16967;SDS011;8600;54.338;10.128;2022-08-19T08:52:50;46.15;;;28.10;;
16967;SDS011;8600;54.338;10.128;2022-08-19T08:55:21;44.33;;;27.20;;
16967;SDS011;8600;54.338;10.128;2022-08-19T08:57:53;39.45;;;25.63;;
16967;SDS011;8600;54.338;10.128;2022-08-19T09:00:26;40.40;;;26.17;;
16967;SDS011;8600;54.338;10.128;2022-08-19T09:02:56;40.88;;;26.83;;
16967;SDS011;8600;54.338;10.128;2022-08-19T09:05:25;39.80;;;26.40;;
16967;SDS011;8600;54.338;10.128;2022-08-19T09:08:02;37.90;;;25.20;;
16967;SDS011;8600;54.338;10.128;2022-08-19T09:10:36;42.83;;;26.88;;
16967;SDS011;8600;54.338;10.128;2022-08-19T09:13:07;41.90;;;26.10;;
16967;SDS011;8600;54.338;10.128;2022-08-19T09:15:47;46.10;;;28.15;;
16967;SDS011;8600;54.338;10.128;2022-08-19T09:18:18;45.35;;;27.48;;
16967;SDS011;8600;54.338;10.128;2022-08-19T09:20:46;44.78;;;28.17;;
16967;SDS011;8600;54.338;10.128;2022-08-19T09:23:14;53.45;;;30.20;;
16967;SDS011;8600;54.338;10.128;2022-08-19T09:25:42;52.63;;;30.17;;
16967;SDS011;8600;54.338;10.128;2022-08-19T09:28:09;54.65;;;30.15;;
16967;SDS011;8600;54.338;10.128;2022-08-19T09:30:38;56.22;;;30.33;;
16967;SDS011;8600;54.338;10.128;2022-08-19T09:33:06;52.10;;;29.30;;
16967;SDS011;8600;54.338;10.128;2022-08-19T09:35:34;54.42;;;29.65;;
16967;SDS011;8600;54.338;10.128;2022-08-19T09:38:01;56.50;;;29.70;;
16967;SDS011;8600;54.338;10.128;2022-08-19T09:40:30;54.83;;;30.23;;
16967;SDS011;8600;54.338;10.128;2022-08-19T09:42:57;47.53;;;27.80;;
16967;SDS011;8600;54.338;10.128;2022-08-19T09:45:27;54.92;;;28.67;;
16967;SDS011;8600;54.338;10.128;2022-08-19T09:47:55;47.83;;;28.27;;
16967;SDS011;8600;54.338;10.128;2022-08-19T09:50:23;49.08;;;28.42;;
16967;SDS011;8600;54.338;10.128;2022-08-19T09:52:50;44.63;;;27.70;;
16967;SDS011;8600;54.338;10.128;2022-08-19T09:55:19;50.08;;;28.35;;
16967;SDS011;8600;54.338;10.128;2022-08-19T09:57:47;46.15;;;27.95;;
16967;SDS011;8600;54.338;10.128;2022-08-19T10:00:14;51.00;;;28.08;;
16967;SDS011;8600;54.338;10.128;2022-08-19T10:02:41;52.33;;;27.98;;
16967;SDS011;8600;54.338;10.128;2022-08-19T10:05:08;50.65;;;27.63;;
16967;SDS011;8600;54.338;10.128;2022-08-19T10:10:19;50.70;;;28.52;;
16967;SDS011;8600;54.338;10.128;2022-08-19T10:12:48;51.47;;;27.73;;
16967;SDS011;8600;54.338;10.128;2022-08-19T10:15:15;50.63;;;27.88;;
16967;SDS011;8600;54.338;10.128;2022-08-19T10:17:46;55.17;;;29.60;;
16967;SDS011;8600;54.338;10.128;2022-08-19T10:20:13;48.78;;;26.38;;
16967;SDS011;8600;54.338;10.128;2022-08-19T10:22:40;47.50;;;26.38;;
16967;SDS011;8600;54.338;10.128;2022-08-19T10:25:07;50.85;;;25.23;;
16967;SDS011;8600;54.338;10.128;2022-08-19T10:27:35;45.42;;;23.95;;
16967;SDS011;8600;54.338;10.128;2022-08-19T10:30:04;40.70;;;24.17;;
16967;SDS011;8600;54.338;10.128;2022-08-19T10:32:32;38.13;;;23.40;;
16967;SDS011;8600;54.338;10.128;2022-08-19T10:34:59;44.50;;;24.90;;
16967;SDS011;8600;54.338;10.128;2022-08-19T10:37:26;46.63;;;25.08;;
16967;SDS011;8600;54.338;10.128;2022-08-19T10:39:55;39.10;;;23.23;;
16967;SDS011;8600;54.338;10.128;2022-08-19T10:42:22;39.17;;;23.60;;
16967;SDS011;8600;54.338;10.128;2022-08-19T10:44:49;43.72;;;23.17;;
16967;SDS011;8600;54.338;10.128;2022-08-19T10:47:17;39.83;;;24.40;;
16967;SDS011;8600;54.338;10.128;2022-08-19T10:49:46;39.63;;;23.13;;
16967;SDS011;8600;54.338;10.128;2022-08-19T10:52:32;42.63;;;23.38;;
16967;SDS011;8600;54.338;10.128;2022-08-19T10:54:59;38.03;;;22.95;;
16967;SDS011;8600;54.338;10.128;2022-08-19T10:57:43;43.58;;;23.23;;
16967;SDS011;8600;54.338;10.128;2022-08-19T11:00:11;36.03;;;21.92;;
16967;SDS011;8600;54.338;10.128;2022-08-19T11:02:40;37.25;;;22.60;;
16967;SDS011;8600;54.338;10.128;2022-08-19T11:05:08;36.22;;;21.88;;
16967;SDS011;8600;54.338;10.128;2022-08-19T11:07:36;34.40;;;22.48;;
16967;SDS011;8600;54.338;10.128;2022-08-19T11:10:04;38.90;;;22.73;;
16967;SDS011;8600;54.338;10.128;2022-08-19T11:12:31;43.10;;;22.95;;
16967;SDS011;8600;54.338;10.128;2022-08-19T11:14:59;39.10;;;22.30;;
16967;SDS011;8600;54.338;10.128;2022-08-19T11:17:26;43.58;;;22.30;;
16967;SDS011;8600;54.338;10.128;2022-08-19T11:19:58;37.83;;;22.10;;
16967;SDS011;8600;54.338;10.128;2022-08-19T11:22:29;37.50;;;22.33;;
16967;SDS011;8600;54.338;10.128;2022-08-19T11:24:56;41.90;;;23.63;;
16967;SDS011;8600;54.338;10.128;2022-08-19T11:27:23;42.35;;;24.13;;
16967;SDS011;8600;54.338;10.128;2022-08-19T11:29:49;41.78;;;24.40;;
16967;SDS011;8600;54.338;10.128;2022-08-19T11:32:17;40.83;;;24.83;;
16967;SDS011;8600;54.338;10.128;2022-08-19T11:34:45;41.30;;;23.50;;
16967;SDS011;8600;54.338;10.128;2022-08-19T11:37:13;39.17;;;23.05;;
16967;SDS011;8600;54.338;10.128;2022-08-19T11:39:40;46.35;;;24.70;;
16967;SDS011;8600;54.338;10.128;2022-08-19T11:42:07;42.45;;;24.10;;
16967;SDS011;8600;54.338;10.128;2022-08-19T11:44:49;48.63;;;25.90;;
16967;SDS011;8600;54.338;10.128;2022-08-19T11:47:16;47.22;;;25.75;;
16967;SDS011;8600;54.338;10.128;2022-08-19T11:49:45;47.45;;;26.42;;
16967;SDS011;8600;54.338;10.128;2022-08-19T11:52:14;47.40;;;25.80;;
16967;SDS011;8600;54.338;10.128;2022-08-19T11:54:41;48.10;;;26.60;;
16967;SDS011;8600;54.338;10.128;2022-08-19T11:57:07;44.50;;;25.30;;
16967;SDS011;8600;54.338;10.128;2022-08-19T11:59:34;48.15;;;27.33;;
16967;SDS011;8600;54.338;10.128;2022-08-19T12:02:01;44.60;;;25.88;;
16967;SDS011;8600;54.338;10.128;2022-08-19T12:04:28;52.15;;;27.00;;
16967;SDS011;8600;54.338;10.128;2022-08-19T12:06:55;47.25;;;26.27;;
16967;SDS011;8600;54.338;10.128;2022-08-19T12:09:24;48.38;;;26.77;;
16967;SDS011;8600;54.338;10.128;2022-08-19T12:11:51;47.30;;;26.77;;
16967;SDS011;8600;54.338;10.128;2022-08-19T12:14:17;44.67;;;25.67;;
16967;SDS011;8600;54.338;10.128;2022-08-19T12:16:45;50.50;;;27.13;;
16967;SDS011;8600;54.338;10.128;2022-08-19T12:19:12;51.00;;;27.40;;
16967;SDS011;8600;54.338;10.128;2022-08-19T12:21:39;50.47;;;27.80;;
16967;SDS011;8600;54.338;10.128;2022-08-19T12:24:06;56.72;;;27.73;;
16967;SDS011;8600;54.338;10.128;2022-08-19T12:26:35;58.95;;;28.90;;
16967;SDS011;8600;54.338;10.128;2022-08-19T12:29:01;60.50;;;29.70;;
16967;SDS011;8600;54.338;10.128;2022-08-19T12:31:29;56.65;;;29.73;;
16967;SDS011;8600;54.338;10.128;2022-08-19T12:33:57;54.50;;;28.83;;
16967;SDS011;8600;54.338;10.128;2022-08-19T12:36:27;56.35;;;29.00;;
16967;SDS011;8600;54.338;10.128;2022-08-19T12:38:55;50.47;;;27.92;;
16967;SDS011;8600;54.338;10.128;2022-08-19T12:41:24;56.38;;;28.67;;
16967;SDS011;8600;54.338;10.128;2022-08-19T12:43:52;48.50;;;28.85;;
16967;SDS011;8600;54.338;10.128;2022-08-19T12:46:19;53.88;;;28.15;;
16967;SDS011;8600;54.338;10.128;2022-08-19T12:48:46;52.67;;;28.08;;
16967;SDS011;8600;54.338;10.128;2022-08-19T12:51:14;48.20;;;28.35;;
16967;SDS011;8600;54.338;10.128;2022-08-19T12:53:44;50.22;;;28.10;;
16967;SDS011;8600;54.338;10.128;2022-08-19T12:56:12;50.70;;;26.95;;
16967;SDS011;8600;54.338;10.128;2022-08-19T12:58:42;44.10;;;25.65;;
16967;SDS011;8600;54.338;10.128;2022-08-19T13:01:11;50.05;;;26.40;;
16967;SDS011;8600;54.338;10.128;2022-08-19T13:03:40;49.55;;;26.27;;
16967;SDS011;8600;54.338;10.128;2022-08-19T13:06:10;55.03;;;27.30;;
16967;SDS011;8600;54.338;10.128;2022-08-19T13:08:38;47.25;;;26.10;;
16967;SDS011;8600;54.338;10.128;2022-08-19T13:11:10;42.85;;;24.60;;
16967;SDS011;8600;54.338;10.128;2022-08-19T13:13:38;43.05;;;25.25;;
16967;SDS011;8600;54.338;10.128;2022-08-19T13:16:06;46.00;;;25.00;;
16967;SDS011;8600;54.338;10.128;2022-08-19T13:18:36;48.42;;;26.58;;
16967;SDS011;8600;54.338;10.128;2022-08-19T13:21:04;48.28;;;25.27;;
16967;SDS011;8600;54.338;10.128;2022-08-19T13:23:33;40.60;;;23.90;;
16967;SDS011;8600;54.338;10.128;2022-08-19T13:26:02;38.40;;;24.30;;
16967;SDS011;8600;54.338;10.128;2022-08-19T13:28:32;38.97;;;22.85;;
16967;SDS011;8600;54.338;10.128;2022-08-19T13:31:14;38.35;;;22.83;;
16967;SDS011;8600;54.338;10.128;2022-08-19T13:34:01;36.85;;;22.65;;
16967;SDS011;8600;54.338;10.128;2022-08-19T13:36:28;38.00;;;22.92;;
16967;SDS011;8600;54.338;10.128;2022-08-19T13:38:55;35.00;;;22.27;;
16967;SDS011;8600;54.338;10.128;2022-08-19T13:41:22;34.75;;;21.80;;
16967;SDS011;8600;54.338;10.128;2022-08-19T13:43:49;32.38;;;21.55;;
16967;SDS011;8600;54.338;10.128;2022-08-19T13:46:16;30.52;;;20.63;;
16967;SDS011;8600;54.338;10.128;2022-08-19T13:48:45;34.08;;;20.63;;
16967;SDS011;8600;54.338;10.128;2022-08-19T13:51:14;33.15;;;21.35;;
16967;SDS011;8600;54.338;10.128;2022-08-19T13:53:42;34.08;;;20.98;;
16967;SDS011;8600;54.338;10.128;2022-08-19T13:56:10;34.13;;;21.05;;
16967;SDS011;8600;54.338;10.128;2022-08-19T13:58:39;34.38;;;21.23;;
16967;SDS011;8600;54.338;10.128;2022-08-19T14:01:06;37.50;;;22.40;;
16967;SDS011;8600;54.338;10.128;2022-08-19T14:03:34;34.92;;;22.88;;
16967;SDS011;8600;54.338;10.128;2022-08-19T14:06:01;35.70;;;22.23;;
16967;SDS011;8600;54.338;10.128;2022-08-19T14:08:30;36.83;;;22.52;;
16967;SDS011;8600;54.338;10.128;2022-08-19T14:10:58;40.97;;;23.63;;
16967;SDS011;8600;54.338;10.128;2022-08-19T14:13:25;43.33;;;25.50;;
16967;SDS011;8600;54.338;10.128;2022-08-19T14:15:52;43.60;;;26.30;;
16967;SDS011;8600;54.338;10.128;2022-08-19T14:18:19;46.38;;;26.33;;
16967;SDS011;8600;54.338;10.128;2022-08-19T14:20:46;46.58;;;26.63;;
16967;SDS011;8600;54.338;10.128;2022-08-19T14:23:14;47.70;;;27.52;;
16967;SDS011;8600;54.338;10.128;2022-08-19T14:25:43;45.53;;;26.98;;
16967;SDS011;8600;54.338;10.128;2022-08-19T14:28:10;44.53;;;26.17;;
16967;SDS011;8600;54.338;10.128;2022-08-19T14:30:36;46.42;;;27.48;;
16967;SDS011;8600;54.338;10.128;2022-08-19T14:33:04;43.90;;;26.63;;
16967;SDS011;8600;54.338;10.128;2022-08-19T14:35:36;44.20;;;25.77;;